sensor_id;sensor_type;location;lat;lon;timestamp;P1;durP1;ratioP1;P2;durP2;ratioP2
23684;SDS011;12020;51.384;6.908;2023-07-20T00:02:23;5.82;;;5.15;;
23684;SDS011;12020;51.384;6.908;2023-07-20T00:04:49;6.22;;;5.13;;
23684;SDS011;12020;51.384;6.908;2023-07-20T00:07:16;6.93;;;4.90;;
23684;SDS011;12020;51.384;6.908;2023-07-20T00:09:42;6.60;;;4.90;;
23684;SDS011;12020;51.384;6.908;2023-07-20T00:14:40;6.82;;;5.13;;
23684;SDS011;12020;51.384;6.908;2023-07-20T00:17:07;6.20;;;5.60;;
23684;SDS011;12020;51.384;6.908;2023-07-20T00:19:33;6.25;;;5.15;;
23684;SDS011;12020;51.384;6.908;2023-07-20T00:22:00;7.65;;;5.43;;
23684;SDS011;12020;51.384;6.908;2023-07-20T00:24:27;5.53;;;5.03;;
23684;SDS011;12020;51.384;6.908;2023-07-20T00:26:54;6.17;;;4.93;;
23684;SDS011;12020;51.384;6.908;2023-07-20T00:29:19;7.43;;;5.18;;
23684;SDS011;12020;51.384;6.908;2023-07-20T00:31:46;8.00;;;5.10;;
23684;SDS011;12020;51.384;6.908;2023-07-20T00:34:12;6.70;;;5.20;;
23684;SDS011;12020;51.384;6.908;2023-07-20T00:36:38;6.43;;;5.50;;
23684;SDS011;12020;51.384;6.908;2023-07-20T00:39:04;5.60;;;5.00;;
23684;SDS011;12020;51.384;6.908;2023-07-20T00:41:30;7.22;;;5.63;;
23684;SDS011;12020;51.384;6.908;2023-07-20T00:43:57;6.97;;;4.90;;
23684;SDS011;12020;51.384;6.908;2023-07-20T00:46:23;6.45;;;4.88;;
23684;SDS011;12020;51.384;6.908;2023-07-20T00:48:50;6.30;;;4.90;;
23684;SDS011;12020;51.384;6.908;2023-07-20T00:51:17;7.07;;;5.10;;
23684;SDS011;12020;51.384;6.908;2023-07-20T00:53:43;6.22;;;4.97;;
23684;SDS011;12020;51.384;6.908;2023-07-20T00:56:11;6.85;;;5.15;;
23684;SDS011;12020;51.384;6.908;2023-07-20T00:58:37;6.03;;;5.13;;
23684;SDS011;12020;51.384;6.908;2023-07-20T01:01:03;6.90;;;5.53;;
23684;SDS011;12020;51.384;6.908;2023-07-20T01:03:29;6.63;;;5.45;;
23684;SDS011;12020;51.384;6.908;2023-07-20T01:06:00;6.25;;;4.85;;
23684;SDS011;12020;51.384;6.908;2023-07-20T01:11:15;7.53;;;5.38;;
23684;SDS011;12020;51.384;6.908;2023-07-20T01:13:46;5.95;;;4.82;;
23684;SDS011;12020;51.384;6.908;2023-07-20T01:16:12;6.13;;;4.80;;
23684;SDS011;12020;51.384;6.908;2023-07-20T01:18:38;5.83;;;4.47;;
23684;SDS011;12020;51.384;6.908;2023-07-20T01:21:06;5.32;;;4.82;;
23684;SDS011;12020;51.384;6.908;2023-07-20T01:23:57;5.65;;;4.75;;
23684;SDS011;12020;51.384;6.908;2023-07-20T01:27:00;5.60;;;4.90;;
23684;SDS011;12020;51.384;6.908;2023-07-20T01:32:50;6.40;;;5.15;;
23684;SDS011;12020;51.384;6.908;2023-07-20T01:37:55;5.57;;;5.07;;
23684;SDS011;12020;51.384;6.908;2023-07-20T01:40:23;6.90;;;5.15;;
23684;SDS011;12020;51.384;6.908;2023-07-20T01:42:50;5.63;;;5.03;;
23684;SDS011;12020;51.384;6.908;2023-07-20T01:45:17;6.50;;;5.63;;
23684;SDS011;12020;51.384;6.908;2023-07-20T01:47:43;6.55;;;5.70;;
23684;SDS011;12020;51.384;6.908;2023-07-20T01:50:09;6.13;;;5.43;;
23684;SDS011;12020;51.384;6.908;2023-07-20T01:52:35;7.13;;;5.60;;
23684;SDS011;12020;51.384;6.908;2023-07-20T01:55:01;7.80;;;6.13;;
23684;SDS011;12020;51.384;6.908;2023-07-20T01:57:33;6.53;;;5.68;;
23684;SDS011;12020;51.384;6.908;2023-07-20T02:00:00;8.98;;;6.45;;
23684;SDS011;12020;51.384;6.908;2023-07-20T02:02:26;8.18;;;6.35;;
23684;SDS011;12020;51.384;6.908;2023-07-20T02:04:53;10.40;;;6.47;;
23684;SDS011;12020;51.384;6.908;2023-07-20T02:07:19;8.85;;;6.75;;
23684;SDS011;12020;51.384;6.908;2023-07-20T02:09:45;8.75;;;6.82;;
23684;SDS011;12020;51.384;6.908;2023-07-20T02:12:13;10.32;;;7.18;;
23684;SDS011;12020;51.384;6.908;2023-07-20T02:14:39;9.13;;;6.70;;
23684;SDS011;12020;51.384;6.908;2023-07-20T02:17:05;10.93;;;6.80;;
23684;SDS011;12020;51.384;6.908;2023-07-20T02:19:32;8.98;;;7.18;;
23684;SDS011;12020;51.384;6.908;2023-07-20T02:21:59;8.63;;;6.97;;
23684;SDS011;12020;51.384;6.908;2023-07-20T02:24:26;8.80;;;7.68;;
23684;SDS011;12020;51.384;6.908;2023-07-20T02:26:52;8.50;;;7.20;;
23684;SDS011;12020;51.384;6.908;2023-07-20T02:29:20;8.63;;;6.97;;
23684;SDS011;12020;51.384;6.908;2023-07-20T02:31:46;9.02;;;6.80;;
23684;SDS011;12020;51.384;6.908;2023-07-20T02:34:17;9.20;;;7.10;;
23684;SDS011;12020;51.384;6.908;2023-07-20T02:36:45;8.43;;;7.10;;
23684;SDS011;12020;51.384;6.908;2023-07-20T02:39:13;8.82;;;7.07;;
23684;SDS011;12020;51.384;6.908;2023-07-20T02:41:39;8.70;;;7.57;;
23684;SDS011;12020;51.384;6.908;2023-07-20T02:44:05;8.38;;;6.95;;
23684;SDS011;12020;51.384;6.908;2023-07-20T02:46:31;9.38;;;7.15;;
23684;SDS011;12020;51.384;6.908;2023-07-20T02:48:58;8.43;;;6.97;;
23684;SDS011;12020;51.384;6.908;2023-07-20T02:51:24;7.93;;;7.13;;
23684;SDS011;12020;51.384;6.908;2023-07-20T02:53:50;8.02;;;7.20;;
23684;SDS011;12020;51.384;6.908;2023-07-20T02:56:16;7.45;;;6.60;;
23684;SDS011;12020;51.384;6.908;2023-07-20T02:58:43;9.38;;;7.03;;
23684;SDS011;12020;51.384;6.908;2023-07-20T03:01:10;8.40;;;7.50;;
23684;SDS011;12020;51.384;6.908;2023-07-20T03:03:39;8.65;;;6.78;;
23684;SDS011;12020;51.384;6.908;2023-07-20T03:06:06;7.47;;;6.60;;
23684;SDS011;12020;51.384;6.908;2023-07-20T03:08:33;8.50;;;7.03;;
23684;SDS011;12020;51.384;6.908;2023-07-20T03:11:01;10.07;;;7.13;;
23684;SDS011;12020;51.384;6.908;2023-07-20T03:13:27;9.25;;;6.68;;
23684;SDS011;12020;51.384;6.908;2023-07-20T03:15:55;8.60;;;7.00;;
23684;SDS011;12020;51.384;6.908;2023-07-20T03:18:21;8.65;;;7.45;;
23684;SDS011;12020;51.384;6.908;2023-07-20T03:20:47;7.85;;;6.95;;
23684;SDS011;12020;51.384;6.908;2023-07-20T03:23:14;8.13;;;6.90;;
23684;SDS011;12020;51.384;6.908;2023-07-20T03:25:40;8.77;;;7.18;;
23684;SDS011;12020;51.384;6.908;2023-07-20T03:28:06;8.30;;;7.37;;
23684;SDS011;12020;51.384;6.908;2023-07-20T03:30:34;9.10;;;7.22;;
23684;SDS011;12020;51.384;6.908;2023-07-20T03:33:00;8.90;;;7.55;;
23684;SDS011;12020;51.384;6.908;2023-07-20T03:35:26;9.07;;;8.00;;
23684;SDS011;12020;51.384;6.908;2023-07-20T03:37:53;10.88;;;7.93;;
23684;SDS011;12020;51.384;6.908;2023-07-20T03:40:19;8.93;;;7.40;;
23684;SDS011;12020;51.384;6.908;2023-07-20T03:42:45;9.55;;;7.75;;
23684;SDS011;12020;51.384;6.908;2023-07-20T03:47:42;9.75;;;7.72;;
23684;SDS011;12020;51.384;6.908;2023-07-20T03:50:10;10.63;;;8.05;;
23684;SDS011;12020;51.384;6.908;2023-07-20T03:52:36;10.57;;;8.40;;
23684;SDS011;12020;51.384;6.908;2023-07-20T03:55:04;10.57;;;8.57;;
23684;SDS011;12020;51.384;6.908;2023-07-20T03:57:31;11.15;;;8.38;;
23684;SDS011;12020;51.384;6.908;2023-07-20T03:59:58;10.43;;;8.60;;
23684;SDS011;12020;51.384;6.908;2023-07-20T04:02:24;10.00;;;8.10;;
23684;SDS011;12020;51.384;6.908;2023-07-20T04:04:52;11.40;;;8.05;;
23684;SDS011;12020;51.384;6.908;2023-07-20T04:07:24;11.70;;;8.35;;
23684;SDS011;12020;51.384;6.908;2023-07-20T04:09:49;10.95;;;8.63;;
23684;SDS011;12020;51.384;6.908;2023-07-20T04:12:18;12.27;;;8.50;;
23684;SDS011;12020;51.384;6.908;2023-07-20T04:17:13;10.20;;;8.65;;
23684;SDS011;12020;51.384;6.908;2023-07-20T04:19:39;12.15;;;9.05;;
23684;SDS011;12020;51.384;6.908;2023-07-20T04:22:05;10.30;;;8.85;;
23684;SDS011;12020;51.384;6.908;2023-07-20T04:24:32;10.32;;;9.07;;
23684;SDS011;12020;51.384;6.908;2023-07-20T04:26:58;10.85;;;9.40;;
23684;SDS011;12020;51.384;6.908;2023-07-20T04:29:24;12.38;;;9.88;;
23684;SDS011;12020;51.384;6.908;2023-07-20T04:31:50;12.40;;;10.18;;
23684;SDS011;12020;51.384;6.908;2023-07-20T04:36:53;13.07;;;10.30;;
23684;SDS011;12020;51.384;6.908;2023-07-20T04:41:50;13.40;;;10.68;;
23684;SDS011;12020;51.384;6.908;2023-07-20T04:44:18;12.82;;;11.40;;
23684;SDS011;12020;51.384;6.908;2023-07-20T04:46:50;14.67;;;11.07;;
23684;SDS011;12020;51.384;6.908;2023-07-20T04:49:17;14.88;;;13.02;;
23684;SDS011;12020;51.384;6.908;2023-07-20T04:51:42;16.10;;;14.05;;
23684;SDS011;12020;51.384;6.908;2023-07-20T04:54:08;16.70;;;13.98;;
23684;SDS011;12020;51.384;6.908;2023-07-20T04:56:34;16.35;;;13.68;;
23684;SDS011;12020;51.384;6.908;2023-07-20T04:59:06;15.38;;;13.65;;
23684;SDS011;12020;51.384;6.908;2023-07-20T05:01:41;15.27;;;13.68;;
23684;SDS011;12020;51.384;6.908;2023-07-20T05:04:08;17.13;;;14.60;;
23684;SDS011;12020;51.384;6.908;2023-07-20T05:06:37;16.58;;;14.77;;
23684;SDS011;12020;51.384;6.908;2023-07-20T05:09:05;18.23;;;16.23;;
23684;SDS011;12020;51.384;6.908;2023-07-20T05:11:31;19.10;;;17.13;;
23684;SDS011;12020;51.384;6.908;2023-07-20T05:13:57;19.80;;;17.13;;
23684;SDS011;12020;51.384;6.908;2023-07-20T05:16:25;18.77;;;16.87;;
23684;SDS011;12020;51.384;6.908;2023-07-20T05:18:56;18.98;;;16.88;;
23684;SDS011;12020;51.384;6.908;2023-07-20T05:21:22;19.70;;;16.17;;
23684;SDS011;12020;51.384;6.908;2023-07-20T05:23:59;18.70;;;16.70;;
23684;SDS011;12020;51.384;6.908;2023-07-20T05:26:29;19.47;;;16.47;;
23684;SDS011;12020;51.384;6.908;2023-07-20T05:28:56;18.58;;;15.90;;
23684;SDS011;12020;51.384;6.908;2023-07-20T05:31:26;17.83;;;15.93;;
23684;SDS011;12020;51.384;6.908;2023-07-20T05:33:54;17.55;;;15.63;;
23684;SDS011;12020;51.384;6.908;2023-07-20T05:36:25;18.67;;;16.17;;
23684;SDS011;12020;51.384;6.908;2023-07-20T05:38:51;17.63;;;15.25;;
23684;SDS011;12020;51.384;6.908;2023-07-20T05:41:24;15.77;;;14.25;;
23684;SDS011;12020;51.384;6.908;2023-07-20T05:46:19;14.90;;;13.48;;
23684;SDS011;12020;51.384;6.908;2023-07-20T05:48:46;14.85;;;13.43;;
23684;SDS011;12020;51.384;6.908;2023-07-20T05:51:12;14.13;;;12.73;;
23684;SDS011;12020;51.384;6.908;2023-07-20T05:53:37;13.98;;;12.63;;
23684;SDS011;12020;51.384;6.908;2023-07-20T05:56:04;14.73;;;13.32;;
23684;SDS011;12020;51.384;6.908;2023-07-20T05:58:30;12.23;;;10.98;;
23684;SDS011;12020;51.384;6.908;2023-07-20T06:00:56;10.85;;;9.75;;
23684;SDS011;12020;51.384;6.908;2023-07-20T06:03:22;9.87;;;8.87;;
23684;SDS011;12020;51.384;6.908;2023-07-20T06:05:48;9.93;;;9.00;;
23684;SDS011;12020;51.384;6.908;2023-07-20T06:08:14;10.00;;;8.70;;
23684;SDS011;12020;51.384;6.908;2023-07-20T06:10:39;10.10;;;9.20;;
23684;SDS011;12020;51.384;6.908;2023-07-20T06:13:05;9.33;;;8.43;;
23684;SDS011;12020;51.384;6.908;2023-07-20T06:15:31;10.53;;;8.97;;
23684;SDS011;12020;51.384;6.908;2023-07-20T06:17:59;9.80;;;8.90;;
23684;SDS011;12020;51.384;6.908;2023-07-20T06:20:26;9.70;;;8.82;;
23684;SDS011;12020;51.384;6.908;2023-07-20T06:22:51;9.87;;;9.03;;
23684;SDS011;12020;51.384;6.908;2023-07-20T06:25:17;10.27;;;9.37;;
23684;SDS011;12020;51.384;6.908;2023-07-20T06:27:43;10.60;;;9.60;;
23684;SDS011;12020;51.384;6.908;2023-07-20T06:30:09;11.30;;;10.30;;
23684;SDS011;12020;51.384;6.908;2023-07-20T06:32:35;11.27;;;10.27;;
23684;SDS011;12020;51.384;6.908;2023-07-20T06:35:01;11.60;;;10.60;;
23684;SDS011;12020;51.384;6.908;2023-07-20T06:37:26;11.85;;;10.85;;
23684;SDS011;12020;51.384;6.908;2023-07-20T06:39:52;10.87;;;9.87;;
23684;SDS011;12020;51.384;6.908;2023-07-20T06:42:18;11.87;;;10.67;;
23684;SDS011;12020;51.384;6.908;2023-07-20T06:44:43;10.82;;;9.82;;
23684;SDS011;12020;51.384;6.908;2023-07-20T06:47:09;11.05;;;10.00;;
23684;SDS011;12020;51.384;6.908;2023-07-20T06:49:34;11.80;;;10.63;;
23684;SDS011;12020;51.384;6.908;2023-07-20T06:52:00;12.60;;;11.30;;
23684;SDS011;12020;51.384;6.908;2023-07-20T06:54:26;12.87;;;10.93;;
23684;SDS011;12020;51.384;6.908;2023-07-20T06:56:51;9.32;;;8.05;;
23684;SDS011;12020;51.384;6.908;2023-07-20T06:59:17;8.88;;;7.97;;
23684;SDS011;12020;51.384;6.908;2023-07-20T07:01:43;7.93;;;7.13;;
23684;SDS011;12020;51.384;6.908;2023-07-20T07:04:09;8.30;;;7.50;;
23684;SDS011;12020;51.384;6.908;2023-07-20T07:06:35;9.57;;;8.55;;
23684;SDS011;12020;51.384;6.908;2023-07-20T07:09:02;12.30;;;9.85;;
23684;SDS011;12020;51.384;6.908;2023-07-20T07:11:28;12.52;;;10.25;;
23684;SDS011;12020;51.384;6.908;2023-07-20T07:13:54;9.30;;;7.68;;
23684;SDS011;12020;51.384;6.908;2023-07-20T07:16:19;8.03;;;6.50;;
23684;SDS011;12020;51.384;6.908;2023-07-20T07:18:45;5.33;;;4.83;;
23684;SDS011;12020;51.384;6.908;2023-07-20T07:21:11;6.30;;;5.80;;
23684;SDS011;12020;51.384;6.908;2023-07-20T07:23:40;7.10;;;6.50;;
23684;SDS011;12020;51.384;6.908;2023-07-20T07:26:06;7.18;;;6.47;;
23684;SDS011;12020;51.384;6.908;2023-07-20T07:28:31;6.20;;;5.67;;
23684;SDS011;12020;51.384;6.908;2023-07-20T07:30:57;6.40;;;5.55;;
23684;SDS011;12020;51.384;6.908;2023-07-20T07:33:23;5.07;;;4.55;;
23684;SDS011;12020;51.384;6.908;2023-07-20T07:35:49;5.40;;;4.90;;
23684;SDS011;12020;51.384;6.908;2023-07-20T07:38:17;4.85;;;4.40;;
23684;SDS011;12020;51.384;6.908;2023-07-20T07:40:43;4.30;;;3.90;;
23684;SDS011;12020;51.384;6.908;2023-07-20T07:43:09;3.28;;;2.30;;
23684;SDS011;12020;51.384;6.908;2023-07-20T07:45:38;1.55;;;1.13;;
23684;SDS011;12020;51.384;6.908;2023-07-20T07:48:04;3.60;;;2.22;;
23684;SDS011;12020;51.384;6.908;2023-07-20T07:50:30;2.70;;;2.50;;
23684;SDS011;12020;51.384;6.908;2023-07-20T07:52:56;1.63;;;1.38;;
23684;SDS011;12020;51.384;6.908;2023-07-20T07:55:22;2.65;;;1.38;;
23684;SDS011;12020;51.384;6.908;2023-07-20T07:57:49;1.47;;;1.03;;
23684;SDS011;12020;51.384;6.908;2023-07-20T08:00:14;2.60;;;1.40;;
23684;SDS011;12020;51.384;6.908;2023-07-20T08:02:43;1.87;;;1.70;;
23684;SDS011;12020;51.384;6.908;2023-07-20T08:05:11;2.33;;;2.13;;
23684;SDS011;12020;51.384;6.908;2023-07-20T08:07:37;2.30;;;1.80;;
23684;SDS011;12020;51.384;6.908;2023-07-20T08:10:03;2.13;;;1.90;;
23684;SDS011;12020;51.384;6.908;2023-07-20T08:12:29;2.10;;;2.00;;
23684;SDS011;12020;51.384;6.908;2023-07-20T08:14:55;2.30;;;2.10;;
23684;SDS011;12020;51.384;6.908;2023-07-20T08:17:21;1.80;;;1.70;;
23684;SDS011;12020;51.384;6.908;2023-07-20T08:19:47;2.78;;;1.60;;
23684;SDS011;12020;51.384;6.908;2023-07-20T08:22:12;2.10;;;1.85;;
23684;SDS011;12020;51.384;6.908;2023-07-20T08:24:39;2.30;;;2.10;;
23684;SDS011;12020;51.384;6.908;2023-07-20T08:27:05;1.80;;;1.70;;
23684;SDS011;12020;51.384;6.908;2023-07-20T08:29:31;2.13;;;1.90;;
23684;SDS011;12020;51.384;6.908;2023-07-20T08:31:57;1.88;;;1.52;;
23684;SDS011;12020;51.384;6.908;2023-07-20T08:34:23;2.20;;;1.70;;
23684;SDS011;12020;51.384;6.908;2023-07-20T08:36:48;1.70;;;1.60;;
23684;SDS011;12020;51.384;6.908;2023-07-20T08:39:14;2.23;;;1.60;;
23684;SDS011;12020;51.384;6.908;2023-07-20T08:41:40;1.70;;;1.50;;
23684;SDS011;12020;51.384;6.908;2023-07-20T08:44:08;2.08;;;1.83;;
23684;SDS011;12020;51.384;6.908;2023-07-20T08:46:35;2.63;;;1.63;;
23684;SDS011;12020;51.384;6.908;2023-07-20T08:49:03;2.13;;;1.60;;
23684;SDS011;12020;51.384;6.908;2023-07-20T08:51:30;1.85;;;1.67;;
23684;SDS011;12020;51.384;6.908;2023-07-20T08:53:57;2.00;;;1.80;;
23684;SDS011;12020;51.384;6.908;2023-07-20T08:56:23;3.13;;;2.40;;
23684;SDS011;12020;51.384;6.908;2023-07-20T08:58:54;3.63;;;2.55;;
23684;SDS011;12020;51.384;6.908;2023-07-20T09:01:20;2.25;;;2.05;;
23684;SDS011;12020;51.384;6.908;2023-07-20T09:03:47;2.30;;;2.10;;
23684;SDS011;12020;51.384;6.908;2023-07-20T09:06:14;3.55;;;1.60;;
23684;SDS011;12020;51.384;6.908;2023-07-20T09:08:41;1.70;;;1.57;;
23684;SDS011;12020;51.384;6.908;2023-07-20T09:11:11;2.20;;;1.80;;
23684;SDS011;12020;51.384;6.908;2023-07-20T09:13:38;2.97;;;2.40;;
23684;SDS011;12020;51.384;6.908;2023-07-20T09:16:04;4.10;;;3.33;;
23684;SDS011;12020;51.384;6.908;2023-07-20T09:18:30;4.00;;;3.70;;
23684;SDS011;12020;51.384;6.908;2023-07-20T09:21:01;7.43;;;6.88;;
23684;SDS011;12020;51.384;6.908;2023-07-20T09:23:35;7.93;;;7.23;;
23684;SDS011;12020;51.384;6.908;2023-07-20T09:26:11;4.70;;;4.30;;
23684;SDS011;12020;51.384;6.908;2023-07-20T09:28:44;3.70;;;3.40;;
23684;SDS011;12020;51.384;6.908;2023-07-20T09:31:17;4.57;;;4.18;;
23684;SDS011;12020;51.384;6.908;2023-07-20T09:33:44;8.38;;;7.57;;
23684;SDS011;12020;51.384;6.908;2023-07-20T09:36:11;6.15;;;5.30;;
23684;SDS011;12020;51.384;6.908;2023-07-20T09:38:38;6.80;;;6.10;;
23684;SDS011;12020;51.384;6.908;2023-07-20T09:41:08;7.15;;;6.55;;
23684;SDS011;12020;51.384;6.908;2023-07-20T09:43:39;5.82;;;5.43;;
23684;SDS011;12020;51.384;6.908;2023-07-20T09:46:05;6.88;;;6.20;;
23684;SDS011;12020;51.384;6.908;2023-07-20T09:48:31;7.13;;;6.50;;
23684;SDS011;12020;51.384;6.908;2023-07-20T09:50:57;5.37;;;4.63;;
23684;SDS011;12020;51.384;6.908;2023-07-20T09:53:24;7.18;;;5.93;;
23684;SDS011;12020;51.384;6.908;2023-07-20T09:55:52;7.03;;;6.43;;
23684;SDS011;12020;51.384;6.908;2023-07-20T09:58:19;6.57;;;5.97;;
23684;SDS011;12020;51.384;6.908;2023-07-20T10:00:45;6.40;;;5.90;;
23684;SDS011;12020;51.384;6.908;2023-07-20T10:03:18;5.60;;;4.75;;
23684;SDS011;12020;51.384;6.908;2023-07-20T10:05:54;5.07;;;4.68;;
23684;SDS011;12020;51.384;6.908;2023-07-20T10:08:27;4.70;;;4.30;;
23684;SDS011;12020;51.384;6.908;2023-07-20T10:10:55;4.57;;;4.10;;
23684;SDS011;12020;51.384;6.908;2023-07-20T10:13:26;4.37;;;3.97;;
23684;SDS011;12020;51.384;6.908;2023-07-20T10:15:54;4.50;;;4.10;;
23684;SDS011;12020;51.384;6.908;2023-07-20T10:21:15;4.30;;;3.90;;
23684;SDS011;12020;51.384;6.908;2023-07-20T10:23:43;3.20;;;2.90;;
23684;SDS011;12020;51.384;6.908;2023-07-20T10:26:10;3.20;;;2.80;;
23684;SDS011;12020;51.384;6.908;2023-07-20T10:28:37;3.78;;;3.08;;
23684;SDS011;12020;51.384;6.908;2023-07-20T10:31:03;2.92;;;2.60;;
23684;SDS011;12020;51.384;6.908;2023-07-20T10:33:29;4.40;;;2.80;;
23684;SDS011;12020;51.384;6.908;2023-07-20T10:38:39;2.80;;;2.30;;
23684;SDS011;12020;51.384;6.908;2023-07-20T10:41:20;2.33;;;2.13;;
23684;SDS011;12020;51.384;6.908;2023-07-20T10:46:48;3.00;;;2.00;;
23684;SDS011;12020;51.384;6.908;2023-07-20T10:49:14;2.53;;;1.60;;
23684;SDS011;12020;51.384;6.908;2023-07-20T10:51:41;2.80;;;1.80;;
23684;SDS011;12020;51.384;6.908;2023-07-20T10:56:43;2.45;;;1.38;;
23684;SDS011;12020;51.384;6.908;2023-07-20T10:59:20;2.37;;;1.50;;
23684;SDS011;12020;51.384;6.908;2023-07-20T11:02:06;1.30;;;1.20;;
23684;SDS011;12020;51.384;6.908;2023-07-20T11:04:39;1.92;;;1.27;;
23684;SDS011;12020;51.384;6.908;2023-07-20T11:07:09;1.77;;;1.10;;
23684;SDS011;12020;51.384;6.908;2023-07-20T11:09:35;2.10;;;1.80;;
23684;SDS011;12020;51.384;6.908;2023-07-20T11:12:12;2.70;;;2.08;;
23684;SDS011;12020;51.384;6.908;2023-07-20T11:14:43;1.92;;;1.80;;
23684;SDS011;12020;51.384;6.908;2023-07-20T11:17:20;2.90;;;1.80;;
23684;SDS011;12020;51.384;6.908;2023-07-20T11:19:59;2.40;;;1.80;;
23684;SDS011;12020;51.384;6.908;2023-07-20T11:22:32;1.42;;;1.30;;
23684;SDS011;12020;51.384;6.908;2023-07-20T11:25:04;2.10;;;1.20;;
23684;SDS011;12020;51.384;6.908;2023-07-20T11:27:33;1.65;;;1.20;;
23684;SDS011;12020;51.384;6.908;2023-07-20T11:32:59;1.73;;;1.20;;
23684;SDS011;12020;51.384;6.908;2023-07-20T11:35:25;3.97;;;1.30;;
23684;SDS011;12020;51.384;6.908;2023-07-20T11:37:50;1.70;;;1.30;;
23684;SDS011;12020;51.384;6.908;2023-07-20T11:40:16;2.20;;;1.50;;
23684;SDS011;12020;51.384;6.908;2023-07-20T11:42:42;1.53;;;1.23;;
23684;SDS011;12020;51.384;6.908;2023-07-20T11:45:09;2.43;;;1.20;;
23684;SDS011;12020;51.384;6.908;2023-07-20T11:47:39;2.60;;;1.38;;
23684;SDS011;12020;51.384;6.908;2023-07-20T11:50:08;1.65;;;1.20;;
23684;SDS011;12020;51.384;6.908;2023-07-20T11:52:34;1.67;;;1.35;;
23684;SDS011;12020;51.384;6.908;2023-07-20T11:57:30;2.40;;;1.40;;
23684;SDS011;12020;51.384;6.908;2023-07-20T11:59:57;2.50;;;1.42;;
23684;SDS011;12020;51.384;6.908;2023-07-20T12:02:30;2.50;;;1.33;;
23684;SDS011;12020;51.384;6.908;2023-07-20T12:04:57;1.55;;;1.33;;
23684;SDS011;12020;51.384;6.908;2023-07-20T12:07:25;1.58;;;1.20;;
23684;SDS011;12020;51.384;6.908;2023-07-20T12:10:05;2.83;;;1.38;;
23684;SDS011;12020;51.384;6.908;2023-07-20T12:12:38;1.80;;;1.60;;
23684;SDS011;12020;51.384;6.908;2023-07-20T12:15:13;1.65;;;1.13;;
23684;SDS011;12020;51.384;6.908;2023-07-20T12:17:44;2.20;;;1.40;;
23684;SDS011;12020;51.384;6.908;2023-07-20T12:20:11;2.75;;;1.50;;
23684;SDS011;12020;51.384;6.908;2023-07-20T12:22:40;2.13;;;1.20;;
23684;SDS011;12020;51.384;6.908;2023-07-20T12:25:08;1.67;;;1.30;;
23684;SDS011;12020;51.384;6.908;2023-07-20T12:27:37;2.08;;;1.40;;
23684;SDS011;12020;51.384;6.908;2023-07-20T12:30:05;2.28;;;1.20;;
23684;SDS011;12020;51.384;6.908;2023-07-20T12:32:31;2.10;;;1.20;;
23684;SDS011;12020;51.384;6.908;2023-07-20T12:34:56;1.77;;;1.20;;
23684;SDS011;12020;51.384;6.908;2023-07-20T12:37:22;1.10;;;1.00;;
23684;SDS011;12020;51.384;6.908;2023-07-20T12:39:48;1.55;;;1.10;;
23684;SDS011;12020;51.384;6.908;2023-07-20T12:42:14;1.98;;;1.15;;
23684;SDS011;12020;51.384;6.908;2023-07-20T12:44:41;2.22;;;1.10;;
23684;SDS011;12020;51.384;6.908;2023-07-20T12:47:07;1.80;;;1.00;;
23684;SDS011;12020;51.384;6.908;2023-07-20T12:49:32;3.23;;;1.13;;
23684;SDS011;12020;51.384;6.908;2023-07-20T12:51:58;1.20;;;1.10;;
23684;SDS011;12020;51.384;6.908;2023-07-20T12:54:23;1.85;;;1.00;;
23684;SDS011;12020;51.384;6.908;2023-07-20T12:56:49;1.43;;;0.90;;
23684;SDS011;12020;51.384;6.908;2023-07-20T12:59:15;1.88;;;0.93;;
23684;SDS011;12020;51.384;6.908;2023-07-20T13:01:40;2.03;;;0.90;;
23684;SDS011;12020;51.384;6.908;2023-07-20T13:04:07;2.00;;;1.20;;
23684;SDS011;12020;51.384;6.908;2023-07-20T13:06:36;1.30;;;0.98;;
23684;SDS011;12020;51.384;6.908;2023-07-20T13:09:02;1.88;;;0.93;;
23684;SDS011;12020;51.384;6.908;2023-07-20T13:11:28;2.37;;;1.03;;
23684;SDS011;12020;51.384;6.908;2023-07-20T13:13:53;1.87;;;1.10;;
23684;SDS011;12020;51.384;6.908;2023-07-20T13:16:19;1.73;;;0.80;;
23684;SDS011;12020;51.384;6.908;2023-07-20T13:18:46;2.20;;;1.10;;
23684;SDS011;12020;51.384;6.908;2023-07-20T13:21:11;3.10;;;1.00;;
23684;SDS011;12020;51.384;6.908;2023-07-20T13:23:37;1.88;;;0.90;;
23684;SDS011;12020;51.384;6.908;2023-07-20T13:26:04;1.70;;;1.00;;
23684;SDS011;12020;51.384;6.908;2023-07-20T13:28:30;1.70;;;0.80;;
23684;SDS011;12020;51.384;6.908;2023-07-20T13:30:55;2.07;;;0.80;;
23684;SDS011;12020;51.384;6.908;2023-07-20T13:33:21;1.33;;;0.80;;
23684;SDS011;12020;51.384;6.908;2023-07-20T13:35:47;1.40;;;1.15;;
23684;SDS011;12020;51.384;6.908;2023-07-20T13:38:12;1.70;;;1.00;;
23684;SDS011;12020;51.384;6.908;2023-07-20T13:40:38;2.40;;;0.95;;
23684;SDS011;12020;51.384;6.908;2023-07-20T13:43:04;1.27;;;0.77;;
23684;SDS011;12020;51.384;6.908;2023-07-20T13:45:30;1.10;;;0.83;;
23684;SDS011;12020;51.384;6.908;2023-07-20T13:47:55;1.40;;;0.93;;
23684;SDS011;12020;51.384;6.908;2023-07-20T13:50:21;1.50;;;0.80;;
23684;SDS011;12020;51.384;6.908;2023-07-20T13:52:46;1.30;;;0.90;;
23684;SDS011;12020;51.384;6.908;2023-07-20T13:55:12;0.93;;;0.80;;
23684;SDS011;12020;51.384;6.908;2023-07-20T13:57:38;2.13;;;0.88;;
23684;SDS011;12020;51.384;6.908;2023-07-20T14:00:04;1.83;;;0.80;;
23684;SDS011;12020;51.384;6.908;2023-07-20T14:02:30;1.52;;;0.98;;
23684;SDS011;12020;51.384;6.908;2023-07-20T14:04:56;1.10;;;0.73;;
23684;SDS011;12020;51.384;6.908;2023-07-20T14:09:50;1.70;;;0.90;;
23684;SDS011;12020;51.384;6.908;2023-07-20T14:12:16;1.23;;;0.90;;
23684;SDS011;12020;51.384;6.908;2023-07-20T14:14:42;5.77;;;2.07;;
23684;SDS011;12020;51.384;6.908;2023-07-20T14:17:07;5.28;;;1.88;;
23684;SDS011;12020;51.384;6.908;2023-07-20T14:19:33;2.00;;;1.10;;
23684;SDS011;12020;51.384;6.908;2023-07-20T14:24:29;0.90;;;0.73;;
23684;SDS011;12020;51.384;6.908;2023-07-20T14:26:54;0.90;;;0.65;;
23684;SDS011;12020;51.384;6.908;2023-07-20T14:29:20;0.85;;;0.68;;
23684;SDS011;12020;51.384;6.908;2023-07-20T14:31:46;1.50;;;0.93;;
23684;SDS011;12020;51.384;6.908;2023-07-20T14:34:18;1.48;;;0.88;;
23684;SDS011;12020;51.384;6.908;2023-07-20T14:36:44;10.93;;;3.17;;
23684;SDS011;12020;51.384;6.908;2023-07-20T14:39:10;7.18;;;2.80;;
23684;SDS011;12020;51.384;6.908;2023-07-20T14:41:39;1.13;;;0.80;;
23684;SDS011;12020;51.384;6.908;2023-07-20T14:44:04;0.90;;;0.77;;
23684;SDS011;12020;51.384;6.908;2023-07-20T14:46:30;1.13;;;0.70;;
23684;SDS011;12020;51.384;6.908;2023-07-20T14:48:59;0.90;;;0.70;;
23684;SDS011;12020;51.384;6.908;2023-07-20T14:51:34;4.17;;;1.43;;
23684;SDS011;12020;51.384;6.908;2023-07-20T14:54:01;33.63;;;10.73;;
23684;SDS011;12020;51.384;6.908;2023-07-20T14:56:27;2.80;;;1.03;;
23684;SDS011;12020;51.384;6.908;2023-07-20T14:58:52;1.17;;;0.70;;
23684;SDS011;12020;51.384;6.908;2023-07-20T15:01:18;2.38;;;0.73;;
23684;SDS011;12020;51.384;6.908;2023-07-20T15:03:44;2.17;;;0.83;;
23684;SDS011;12020;51.384;6.908;2023-07-20T15:06:12;1.93;;;0.70;;
23684;SDS011;12020;51.384;6.908;2023-07-20T15:08:38;1.60;;;0.80;;
23684;SDS011;12020;51.384;6.908;2023-07-20T15:11:04;1.33;;;0.70;;
23684;SDS011;12020;51.384;6.908;2023-07-20T15:13:29;2.60;;;1.10;;
23684;SDS011;12020;51.384;6.908;2023-07-20T15:15:55;3.92;;;1.67;;
23684;SDS011;12020;51.384;6.908;2023-07-20T15:18:20;1.30;;;0.70;;
23684;SDS011;12020;51.384;6.908;2023-07-20T15:20:46;1.10;;;0.70;;
23684;SDS011;12020;51.384;6.908;2023-07-20T15:23:13;4.22;;;1.02;;
23684;SDS011;12020;51.384;6.908;2023-07-20T15:25:38;1.73;;;0.93;;
23684;SDS011;12020;51.384;6.908;2023-07-20T15:28:04;2.40;;;0.90;;
23684;SDS011;12020;51.384;6.908;2023-07-20T15:30:30;1.80;;;0.80;;